This is the latest recevied weather packets stored in our database for station/object G7GQA-4. If no packets are shown the sender has not sent any weather packets the latest 10 day(s).
| Time | Temp. | Humidity | Pressure | Rain* | Wind** | Luminosity | Snow |
|---|---|---|---|---|---|---|---|
| 1778241330 | 16.67° C | 63% | - | 0 mm | - | 187 W/m² | - |
| 1778240730 | 16.67° C | 62% | - | 0 mm | - | 407 W/m² | - |
| 1778240130 | 16.11° C | 63% | - | 0 mm | - | 136 W/m² | - |
| 1778239530 | 17.22° C | 61% | - | 0 mm | - | 412 W/m² | - |
| 1778238930 | 17.22° C | 61% | - | 0 mm | - | 515 W/m² | - |
| 1778238330 | 16.67° C | 62% | - | 0 mm | - | 765 W/m² | - |
| 1778237730 | 17.22° C | 62% | - | 0 mm | - | 642 W/m² | - |
| 1778237130 | 16.67° C | 61% | - | 0 mm | - | 738 W/m² | - |
| 1778236530 | 17.22° C | 61% | - | 0 mm | - | 699 W/m² | - |
| 1778235930 | 16.11° C | 64% | - | 0 mm | - | 754 W/m² | - |
| 1778235329 | 16.11° C | 63% | - | 0 mm | - | 799 W/m² | - |
| 1778234729 | 15° C | 67% | - | 0 mm | - | 694 W/m² | - |
| 1778234129 | 15.56° C | 65% | - | 0 mm | - | 326 W/m² | - |
| 1778232929 | 16.11° C | 66% | - | 0 mm | - | 538 W/m² | - |
| 1778232329 | 15° C | 67% | - | 0 mm | - | 711 W/m² | - |
| 1778231728 | 13.89° C | 72% | - | 0 mm | - | 613 W/m² | - |
| 1778231129 | 13.33° C | 72% | - | 0 mm | - | 517 W/m² | - |
| 1778230528 | 12.78° C | 75% | - | 0 mm | - | 603 W/m² | - |
| 1778229929 | 12.22° C | 79% | - | 0 mm | - | 343 W/m² | - |
| 1778229329 | 11.67° C | 80% | - | 0 mm | - | 186 W/m² | - |
| 1778228728 | 11.67° C | 81% | - | 0 mm | - | 181 W/m² | - |
| 1778228128 | 11.11° C | 82% | - | 0 mm | - | 142 W/m² | - |
| 1778227528 | 10.56° C | 83% | - | 0 mm | - | 99 W/m² | - |
| 1778226928 | 10.56° C | 83% | - | 0 mm | - | 63 W/m² | - |
| 1778226328 | 10.56° C | 83% | - | 0 mm | - | 63 W/m² | - |
* Rain latest hour (hover to see other rain measurements)
** Current wind speed in m/s (hover to see current wind gust speed)